This is the latest recevied weather packets stored in our database for station/object n7wwk-1. If no packets are shown the sender has not sent any weather packets the latest 10 day(s).
| Time | Temp. | Humidity | Pressure | Rain* | Wind** | Luminosity | Snow |
|---|---|---|---|---|---|---|---|
| 1777865405 | 18.33° C | 76% | 1016.2 hPa | 0 mm | - | 0 W/m² | - |
| 1777864939 | 18.33° C | 76% | 1016.3 hPa | 0 mm | - | 0 W/m² | - |
| 1777862405 | 18.89° C | 75% | 1016.6 hPa | 0 mm | - | 0 W/m² | - |
| 1777860005 | 18.89° C | 73% | 1016.2 hPa | 0 mm | - | 0 W/m² | - |
| 1777859405 | 19.44° C | 72% | 1015.9 hPa | 0 mm | - | 0 W/m² | - |
| 1777853405 | 20.56° C | 66% | 1015.4 hPa | 0 mm | - | 1 W/m² | - |
| 1777852806 | 20.56° C | 65% | 1015.5 hPa | 0 mm | - | 4 W/m² | - |
| 1777844405 | 22.78° C | 55% | 1014.8 hPa | 0 mm | - | 321 W/m² | - |
| 1777839005 | 23.33° C | 52% | 1015 hPa | 0 mm | - | 516 W/m² | - |
| 1777834205 | 24.44° C | 53% | 1016.3 hPa | 0 mm | - | 740 W/m² | - |
| 1777830738 | 23.89° C | 53% | 1016.6 hPa | 0 mm | - | 806 W/m² | - |
| 1777828337 | 23.33° C | 57% | 1016.9 hPa | 0 mm | - | 788 W/m² | - |
| 1777827605 | 23.33° C | 57% | 1017 hPa | 0 mm | - | 790 W/m² | - |
| 1777826405 | 23.33° C | 59% | 1017.4 hPa | 0 mm | - | 795 W/m² | - |
| 1777825205 | 22.22° C | 64% | 1017.5 hPa | 0 mm | - | 821 W/m² | - |
| 1777824005 | 22.22° C | 66% | 1017.2 hPa | 0 mm | - | 205 W/m² | - |
| 1777819205 | 21.11° C | 74% | 1017 hPa | 0 mm | - | 601 W/m² | - |
| 1777817539 | 20° C | 75% | 1017.3 hPa | 0 mm | - | 262 W/m² | - |
| 1777816805 | 20° C | 77% | 1016.7 hPa | 0 mm | - | 451 W/m² | - |
| 1777813804 | 17.22° C | 88% | 1016.5 hPa | 0 mm | - | 250 W/m² | - |
| 1777809605 | 15° C | 99% | 1016.1 hPa | 0 mm | - | 68 W/m² | - |
| 1777798205 | 13.89° C | 99% | 1013.9 hPa | 0 mm | - | 0 W/m² | - |
| 1777794605 | 14.44° C | 99% | 1014.1 hPa | 0 mm | - | 0 W/m² | - |
| 1777791005 | 15° C | 98% | 1013.9 hPa | 0 mm | - | 0 W/m² | - |
| 1777783805 | 16.67° C | 94% | 1013.5 hPa | 0 mm | - | 0 W/m² | - |
* Rain latest hour (hover to see other rain measurements)
** Current wind speed in m/s (hover to see current wind gust speed)